createdAt,value
2023-01-26T00:03:55.704Z,100610.56
2023-01-26T00:08:57.604Z,100613.31
2023-01-26T00:14:00.494Z,100611.59
2023-01-26T00:19:02.912Z,100597.22
2023-01-26T00:24:05.355Z,100587.41
2023-01-26T00:29:07.014Z,100586.13
2023-01-26T00:34:08.647Z,100577.66
2023-01-26T00:39:10.265Z,100581.00
2023-01-26T00:44:11.883Z,100574.56
2023-01-26T00:49:13.452Z,100564.88
2023-01-26T00:54:15.440Z,100572.25
2023-01-26T00:59:17.137Z,100557.03
2023-01-26T01:04:21.198Z,100556.44
2023-01-26T01:09:22.831Z,100556.94
2023-01-26T01:14:24.558Z,100539.41
2023-01-26T01:19:27.313Z,100551.06
2023-01-26T01:24:29.068Z,100550.03
2023-01-26T01:29:30.701Z,100553.59
2023-01-26T01:34:32.865Z,100539.25
2023-01-26T01:39:34.470Z,100535.66
2023-01-26T01:44:38.245Z,100531.47
2023-01-26T01:49:50.171Z,100532.06
2023-01-26T01:54:59.651Z,100528.47
2023-01-26T02:00:09.732Z,100525.66
2023-01-26T02:05:26.954Z,100513.94
2023-01-26T02:10:30.111Z,100503.34
2023-01-26T02:15:32.124Z,100505.22
2023-01-26T02:20:58.199Z,100500.19
2023-01-26T02:26:04.119Z,100494.44
2023-01-26T02:31:06.306Z,100489.22
2023-01-26T02:36:16.733Z,100485.88
2023-01-26T02:41:37.603Z,100479.41
2023-01-26T02:46:39.583Z,100478.69
2023-01-26T02:51:41.587Z,100461.44
2023-01-26T02:56:43.242Z,100451.53
2023-01-26T03:01:44.960Z,100447.50
2023-01-26T03:06:47.135Z,100449.28
2023-01-26T03:11:48.809Z,100440.41
2023-01-26T03:16:51.924Z,100443.03
2023-01-26T03:22:11.921Z,100444.50
2023-01-26T03:27:28.647Z,100438.53
2023-01-26T03:32:36.188Z,100441.94
2023-01-26T03:37:43.779Z,100437.84
2023-01-26T03:43:10.721Z,100445.44
2023-01-26T03:48:31.562Z,100432.50
2023-01-26T03:53:52.718Z,100429.44
2023-01-26T03:58:56.779Z,100426.25
2023-01-26T04:04:19.437Z,100426.34
2023-01-26T04:09:23.478Z,100418.91
2023-01-26T04:14:49.224Z,100411.47
2023-01-26T04:20:13.736Z,100404.09
2023-01-26T04:25:20.057Z,100403.41
2023-01-26T04:30:21.964Z,100397.94
2023-01-26T04:35:23.949Z,100382.38
2023-01-26T04:40:25.823Z,100388.03
2023-01-26T04:45:28.901Z,100380.41
2023-01-26T04:50:30.936Z,100375.94
2023-01-26T04:55:32.795Z,100378.31
2023-01-26T05:00:34.728Z,100370.38
2023-01-26T05:05:38.900Z,100368.41
2023-01-26T05:10:40.641Z,100361.34
2023-01-26T05:16:16.105Z,100367.06
2023-01-26T05:21:36.154Z,100358.28
2023-01-26T05:26:38.083Z,100359.09
2023-01-26T05:31:44.329Z,100355.28
2023-01-26T05:36:46.140Z,100363.31
2023-01-26T05:41:47.826Z,100369.94
2023-01-26T05:47:03.785Z,100372.00
2023-01-26T05:52:18.419Z,100368.75
2023-01-26T05:57:20.602Z,100373.53
2023-01-26T06:02:27.380Z,100366.78
2023-01-26T06:07:30.264Z,100360.66
2023-01-26T06:12:43.710Z,100370.47
2023-01-26T06:18:08.325Z,100367.53
2023-01-26T06:23:12.098Z,100361.72
2023-01-26T06:28:17.214Z,100352.81
2023-01-26T06:33:19.135Z,100356.44
2023-01-26T06:38:20.888Z,100361.59
2023-01-26T06:43:23.486Z,100350.84
2023-01-26T06:48:26.791Z,100366.38
2023-01-26T06:53:40.049Z,100361.22
2023-01-26T06:59:17.064Z,100363.19
2023-01-26T07:04:36.971Z,100362.41
2023-01-26T07:09:38.675Z,100362.25
2023-01-26T07:14:40.318Z,100358.06
2023-01-26T07:19:41.923Z,100363.00
2023-01-26T07:24:43.504Z,100365.22
2023-01-26T07:29:46.440Z,100361.03
2023-01-26T07:34:50.603Z,100346.78
2023-01-26T07:39:52.451Z,100345.09
2023-01-26T07:44:54.055Z,100348.34
2023-01-26T07:49:55.686Z,100343.56
2023-01-26T07:54:57.556Z,100344.75
2023-01-26T07:59:59.220Z,100343.22
2023-01-26T08:05:02.764Z,100346.88
2023-01-26T08:10:04.728Z,100337.03
2023-01-26T08:15:06.734Z,100339.66
2023-01-26T08:20:09.527Z,100349.84
2023-01-26T08:25:12.201Z,100351.81
2023-01-26T08:30:15.048Z,100346.06
2023-01-26T08:35:16.769Z,100353.84
2023-01-26T08:40:18.411Z,100338.69
2023-01-26T08:45:20.302Z,100342.81
2023-01-26T08:50:21.944Z,100329.84
2023-01-26T08:55:23.564Z,100331.19
2023-01-26T09:00:27.706Z,100332.88
2023-01-26T09:05:33.641Z,100329.44
2023-01-26T09:10:37.840Z,100338.09
2023-01-26T09:15:39.666Z,100333.47
2023-01-26T09:20:42.006Z,100340.97
2023-01-26T09:25:44.729Z,100331.75
2023-01-26T09:30:46.392Z,100340.28
2023-01-26T09:35:48.588Z,100342.19
2023-01-26T09:41:12.988Z,100330.13
2023-01-26T09:46:20.816Z,100322.19
2023-01-26T09:51:34.809Z,100320.00
2023-01-26T09:56:36.505Z,100316.88
2023-01-26T10:01:46.110Z,100316.75
2023-01-26T10:06:48.686Z,100304.25
2023-01-26T10:12:04.691Z,100299.13
2023-01-26T10:17:15.155Z,100297.63
2023-01-26T10:22:25.199Z,100287.97
2023-01-26T10:27:29.514Z,100292.47
2023-01-26T10:32:32.196Z,100284.13
2023-01-26T10:37:34.901Z,100276.41
2023-01-26T10:42:38.265Z,100274.13
2023-01-26T10:47:39.868Z,100261.66
2023-01-26T10:52:58.228Z,100261.78
2023-01-26T10:58:01.352Z,100250.25
2023-01-26T11:03:12.250Z,100246.41
2023-01-26T11:08:37.138Z,100243.66
2023-01-26T11:13:38.770Z,100241.81
2023-01-26T11:19:03.144Z,100226.53
2023-01-26T11:24:14.050Z,100209.94
2023-01-26T11:29:54.307Z,100206.63
2023-01-26T11:35:21.703Z,100194.09
2023-01-26T11:40:26.100Z,100185.19
2023-01-26T11:45:58.508Z,100187.16
2023-01-26T11:51:27.745Z,100186.91
2023-01-26T11:56:41.576Z,100176.56
2023-01-26T12:01:53.231Z,100166.69
2023-01-26T12:07:05.282Z,100161.91
2023-01-26T12:12:30.780Z,100158.50
2023-01-26T12:17:44.534Z,100148.16
2023-01-26T12:23:00.620Z,100139.53
2023-01-26T12:28:19.849Z,100141.34
2023-01-26T12:33:21.788Z,100134.91
2023-01-26T12:38:48.230Z,100125.72
2023-01-26T12:44:01.950Z,100128.25
2023-01-26T12:49:18.464Z,100119.72
2023-01-26T12:54:57.322Z,100121.00
2023-01-26T13:00:27.527Z,100121.44
2023-01-26T13:05:33.623Z,100119.22
2023-01-26T13:10:53.549Z,100115.94
2023-01-26T13:16:34.494Z,100110.97
2023-01-26T13:21:41.317Z,100111.31
2023-01-26T13:26:56.837Z,100112.56
2023-01-26T13:32:21.572Z,100120.16
2023-01-26T13:37:44.310Z,100109.81
2023-01-26T13:43:00.320Z,100121.13
2023-01-26T13:48:10.031Z,100118.19
2023-01-26T13:53:33.033Z,100112.44
2023-01-26T13:58:34.731Z,100118.84
2023-01-26T14:03:36.516Z,100116.63
2023-01-26T14:08:39.495Z,100116.63
2023-01-26T14:13:41.360Z,100111.50
2023-01-26T14:18:45.270Z,100114.84
2023-01-26T14:23:54.234Z,100109.69
2023-01-26T14:28:56.021Z,100112.97
2023-01-26T14:33:59.178Z,100110.34
2023-01-26T14:39:01.212Z,100120.19
2023-01-26T14:44:07.407Z,100122.72
2023-01-26T14:49:24.595Z,100119.25
2023-01-26T14:54:31.068Z,100111.00
2023-01-26T14:59:38.558Z,100107.44
2023-01-26T15:04:43.870Z,100113.88
2023-01-26T15:09:52.399Z,100109.63
2023-01-26T15:14:58.997Z,100104.84
2023-01-26T15:20:03.065Z,100104.13
2023-01-26T15:25:20.758Z,100102.09
2023-01-26T15:30:27.954Z,100116.97
2023-01-26T15:35:34.826Z,100126.28
2023-01-26T15:40:36.527Z,100129.19
2023-01-26T15:45:40.200Z,100132.59
2023-01-26T15:50:41.848Z,100134.09
2023-01-26T15:55:44.643Z,100133.44
2023-01-26T16:00:46.382Z,100129.41
2023-01-26T16:05:48.911Z,100129.41
2023-01-26T16:10:51.223Z,100133.44
2023-01-26T16:15:54.323Z,100129.63
2023-01-26T16:20:56.164Z,100128.06
2023-01-26T16:26:00.126Z,100129.06
2023-01-26T16:31:02.688Z,100133.25
2023-01-26T16:36:04.977Z,100134.31
2023-01-26T16:41:12.556Z,100129.13
2023-01-26T16:46:14.359Z,100138.84
2023-01-26T16:51:22.088Z,100129.75
2023-01-26T16:56:24.797Z,100123.00
2023-01-26T17:01:30.717Z,100127.75
2023-01-26T17:06:32.659Z,100126.63
2023-01-26T17:11:34.487Z,100121.22
2023-01-26T17:16:37.031Z,100130.38
2023-01-26T17:21:38.810Z,100129.09
2023-01-26T17:26:41.099Z,100134.88
2023-01-26T17:31:43.139Z,100138.22
2023-01-26T17:36:46.106Z,100138.41
2023-01-26T17:41:47.802Z,100149.91
2023-01-26T17:46:49.379Z,100137.69
2023-01-26T17:51:51.219Z,100136.56
2023-01-26T17:56:53.011Z,100136.69
2023-01-26T18:01:54.775Z,100134.72
2023-01-26T18:06:56.660Z,100131.31
2023-01-26T18:11:58.268Z,100132.66
2023-01-26T18:16:59.885Z,100139.13
2023-01-26T18:22:01.549Z,100137.56
2023-01-26T18:27:03.159Z,100129.97
2023-01-26T18:32:07.344Z,100132.03
2023-01-26T18:37:12.817Z,100135.97
2023-01-26T18:42:14.704Z,100134.47
2023-01-26T18:47:19.684Z,100142.38
2023-01-26T18:52:22.311Z,100137.97
2023-01-26T18:57:23.990Z,100141.09
2023-01-26T19:02:25.665Z,100144.75
2023-01-26T19:07:27.312Z,100134.31
2023-01-26T19:12:28.946Z,100130.28
2023-01-26T19:17:32.768Z,100130.84
2023-01-26T19:22:37.397Z,100134.41
2023-01-26T19:27:40.358Z,100134.88
2023-01-26T19:33:00.405Z,100139.38
2023-01-26T19:38:02.100Z,100129.56
2023-01-26T19:43:06.556Z,100130.53
2023-01-26T19:48:08.325Z,100130.72
2023-01-26T19:53:10.330Z,100136.78
2023-01-26T19:58:11.977Z,100144.16
2023-01-26T20:03:13.682Z,100141.06
2023-01-26T20:08:15.310Z,100134.41
2023-01-26T20:13:17.480Z,100135.97
2023-01-26T20:18:19.119Z,100139.44
2023-01-26T20:23:21.164Z,100146.00
2023-01-26T20:28:22.788Z,100140.19
2023-01-26T20:33:24.859Z,100142.91
2023-01-26T20:38:26.736Z,100132.72
2023-01-26T20:43:28.301Z,100137.66
2023-01-26T20:48:29.906Z,100137.19
2023-01-26T20:53:31.606Z,100129.00
2023-01-26T20:58:35.477Z,100128.19
2023-01-26T21:03:37.855Z,100117.06
2023-01-26T21:08:40.290Z,100110.41
2023-01-26T21:13:45.221Z,100116.13
2023-01-26T21:18:46.878Z,100113.91
2023-01-26T21:23:48.933Z,100116.31
2023-01-26T21:28:52.673Z,100121.97
2023-01-26T21:33:54.942Z,100116.16
2023-01-26T21:38:58.994Z,100124.84
2023-01-26T21:44:21.044Z,100121.03
2023-01-26T21:49:23.905Z,100119.50
2023-01-26T21:54:26.020Z,100121.59
2023-01-26T21:59:31.909Z,100117.97
2023-01-26T22:04:35.738Z,100118.50
2023-01-26T22:09:38.862Z,100113.69
2023-01-26T22:14:40.560Z,100111.59
2023-01-26T22:19:42.399Z,100113.06
2023-01-26T22:24:44.229Z,100115.00
2023-01-26T22:29:46.038Z,100111.69
2023-01-26T22:34:47.647Z,100091.09
2023-01-26T22:39:49.944Z,100089.38
2023-01-26T22:44:51.543Z,100092.94
2023-01-26T22:49:53.129Z,100079.06
2023-01-26T22:54:57.733Z,100068.47
2023-01-26T22:59:59.699Z,100068.31
2023-01-26T23:05:01.350Z,100064.91
2023-01-26T23:10:03.028Z,100062.75
2023-01-26T23:15:05.007Z,100052.84
2023-01-26T23:20:07.546Z,100051.59
2023-01-26T23:25:27.786Z,100046.56
2023-01-26T23:30:30.127Z,100044.94
2023-01-26T23:35:31.723Z,100046.03
2023-01-26T23:40:34.554Z,100040.75
2023-01-26T23:45:36.528Z,100033.31
2023-01-26T23:50:38.721Z,100025.44
2023-01-26T23:55:43.466Z,100028.53
